Night Sky — MEHE2 — position and weather

sailwx.info

Track history (hours):
 
Tides and Currents Weather Stations Pressure Air Temp Water Temp Dewpoint Dewpoint Depression Visibility Wind Speed Wind Dir Waves Ship Positions

Night Sky

Last reported at 2017-Oct-10 15:20 UTC. Time now 2017-Oct-17 17:13 UTC.
Position N 37°06' W 008°40'.

Length 5 m.

Type: Sailing vessel. MMSI: 235016753.

Date/timePositionNaut miles runAvg speedWind from/ knotsBaromVisibWave heightAir tempDewpointWater temp
2017-Oct-10 15:20N 37°06' W 008°40'0 0.0
2017-Oct-10 14:47N 37°06' W 008°40'0 0.0
2017-Oct-10 12:05N 37°06' W 008°40'0 0.0
2017-Oct-10 11:53N 37°06' W 008°40'0 0.0
2017-Oct-10 11:26N 37°06' W 008°40'0 0.0
2017-Oct-09 18:59N 37°07' W 008°40'0 0.0
2017-Oct-09 18:26N 37°07' W 008°40'0 0.0
2017-Oct-09 17:50N 37°07' W 008°40'0 0.0
2017-Oct-09 17:26N 37°07' W 008°40'0 0.0
2017-Oct-09 16:14N 37°07' W 008°40'0 0.0
2017-Oct-09 15:50N 37°07' W 008°40'0 0.0
2017-Oct-09 11:14N 37°06' W 008°40'0 0.0
2017-Oct-09 10:59N 37°06' W 008°40'0 0.0
2017-Oct-09 10:26N 37°06' W 008°40'0 0.0
2017-Oct-09 09:59N 37°06' W 008°40'0 0.0
2017-Oct-09 09:29N 37°06' W 008°40'0 0.2
2017-Oct-09 08:49N 37°07' W 008°40'0 0.0
2017-Oct-09 08:19N 37°07' W 008°40'0 0.0
2017-Oct-09 07:43N 37°07' W 008°40'0 0.0
2017-Oct-09 07:25N 37°07' W 008°40'0 0.0
2017-Oct-09 06:55N 37°07' W 008°40'0 0.0
2017-Oct-09 06:28N 37°07' W 008°40'0 0.0
2017-Oct-09 05:55N 37°07' W 008°40'0 0.0
2017-Oct-09 05:22N 37°07' W 008°40'0 0.0
2017-Oct-09 04:49N 37°07' W 008°40'0 0.0
2017-Oct-09 04:28N 37°07' W 008°40'0 0.0
2017-Oct-09 03:55N 37°07' W 008°40'0 0.0
2017-Oct-09 03:25N 37°07' W 008°40'0 0.0
2017-Oct-09 01:49N 37°07' W 008°40'0 0.0
2017-Oct-09 01:22N 37°07' W 008°40'1 0.1
2017-Oct-08 12:56N 37°06' W 008°39'2 4.6
2017-Oct-08 12:26N 37°07' W 008°37'1 3.4
2017-Oct-08 12:00N 37°05' W 008°36'1 2.8
2017-Oct-08 11:30N 37°04' W 008°34'3 5.3
2017-Oct-08 11:00N 37°06' W 008°32'1 0.2
2017-Oct-08 06:39N 37°07' W 008°32'0 0.0
2017-Oct-08 06:15N 37°07' W 008°32'0 0.0
2017-Oct-07 15:30N 37°07' W 008°32'0 0.4
2017-Oct-07 14:59N 37°07' W 008°32'0 0.8
2017-Oct-07 14:25N 37°07' W 008°31'0 1.1
2017-Oct-07 14:00N 37°06' W 008°32'2 4.5
2017-Oct-07 13:30N 37°06' W 008°35'2 4.8
2017-Oct-07 13:00N 37°06' W 008°38'2 4.2
2017-Oct-07 12:30N 37°06' W 008°40'1 1.0
2017-Oct-07 11:58N 37°07' W 008°40'0 0.0
2017-Oct-07 11:28N 37°07' W 008°40'0 0.0
2017-Oct-07 10:58N 37°07' W 008°40'0 0.0
2017-Oct-07 10:25N 37°07' W 008°40'0 0.0
2017-Oct-07 09:58N 37°07' W 008°40'0 0.0
2017-Oct-07 09:25N 37°07' W 008°40'0 0.0
2017-Oct-07 08:55N 37°07' W 008°40'0 0.0
2017-Oct-07 08:25N 37°07' W 008°40'0 0.0
2017-Oct-07 07:58N 37°07' W 008°40'0 0.0
2017-Oct-07 07:28N 37°07' W 008°40'0 0.0
2017-Oct-07 06:58N 37°07' W 008°40'0 0.0
2017-Oct-07 06:28N 37°07' W 008°40'0 0.0
2017-Oct-07 05:55N 37°07' W 008°40'0 0.0
2017-Oct-07 05:28N 37°07' W 008°40'0 0.0
2017-Oct-07 04:55N 37°07' W 008°40'0 0.0
2017-Oct-07 04:25N 37°07' W 008°40'0 0.0
2017-Oct-07 03:58N 37°07' W 008°40'0 0.0
2017-Oct-07 03:28N 37°07' W 008°40'0 0.0
2017-Oct-07 02:58N 37°07' W 008°40'0 0.0
2017-Oct-07 02:25N 37°07' W 008°40'0 0.0
2017-Oct-07 01:58N 37°07' W 008°40'0 0.0
2017-Oct-07 01:25N 37°07' W 008°40'0 0.0
2017-Oct-07 00:58N 37°07' W 008°40'0 0.0
2017-Oct-07 00:28N 37°07' W 008°40'0 0.0
2017-Oct-06 23:55N 37°07' W 008°40'0 0.0
2017-Oct-06 23:28N 37°07' W 008°40'0 0.0
2017-Oct-06 22:52N 37°07' W 008°40'0 0.0
2017-Oct-06 20:26N 37°07' W 008°40'0 0.0
2017-Oct-06 19:13N 37°07' W 008°40'0 0.0
2017-Oct-06 18:55N 37°07' W 008°40'0 0.0
2017-Oct-06 18:22N 37°07' W 008°40'0 0.0
2017-Oct-06 10:28N 37°07' W 008°40'0 0.0
2017-Oct-06 09:58N 37°07' W 008°40'0 0.0
2017-Oct-06 09:28N 37°07' W 008°40'0 0.0
2017-Oct-06 08:58N 37°07' W 008°40'0 0.0
2017-Oct-06 08:28N 37°07' W 008°40'0 0.0
2017-Oct-06 07:58N 37°07' W 008°40'0 0.0
2017-Oct-06 04:13N 37°07' W 008°40'0 0.0
2017-Oct-06 01:07N 37°07' W 008°40'0 0.0
2017-Oct-06 00:52N 37°07' W 008°40'0 0.0
2017-Oct-06 00:22N 37°07' W 008°40'0 0.0
2017-Oct-05 23:58N 37°07' W 008°40'0 0.0
2017-Oct-05 23:22N 37°07' W 008°40'0 0.0
2017-Oct-05 22:58N 37°07' W 008°40'0 0.0
2017-Oct-05 22:10N 37°07' W 008°40'0 0.0
2017-Oct-05 20:40N 37°07' W 008°40'0 0.0
2017-Oct-05 20:25N 37°07' W 008°40'0 0.0
2017-Oct-05 19:37N 37°07' W 008°40'0 0.0
2017-Oct-05 19:25N 37°07' W 008°40'0 0.0
2017-Oct-05 18:10N 37°07' W 008°40'0 0.0
2017-Oct-05 17:40N 37°07' W 008°40'0 0.0
2017-Oct-05 16:40N 37°07' W 008°40'0 0.0
2017-Oct-05 15:28N 37°07' W 008°40'0 0.2
2017-Oct-05 14:49N 37°06' W 008°40'1 3.2
2017-Oct-05 14:30N 37°06' W 008°39'3 5.3
2017-Oct-05 14:00N 37°06' W 008°36'3 5.4
2017-Oct-05 13:30N 37°06' W 008°33'1 0.4
2017-Oct-05 10:24N 37°07' W 008°31'1 1.3
2017-Oct-05 09:59N 37°07' W 008°32'0 0.1
2017-Oct-05 06:57N 37°07' W 008°32'0 0.0
2017-Oct-05 06:27N 37°07' W 008°32'0 0.0
2017-Oct-05 05:51N 37°07' W 008°32'0 0.0
2017-Oct-05 04:33N 37°07' W 008°32'0 0.0
2017-Oct-05 04:21N 37°07' W 008°32'0 0.0
2017-Oct-05 03:51N 37°07' W 008°32'0 0.0
2017-Oct-05 03:24N 37°07' W 008°32'0 0.0
2017-Oct-05 03:00N 37°07' W 008°32'0 0.0
2017-Oct-05 01:06N 37°07' W 008°32'0 0.0
2017-Oct-04 15:45N 37°07' W 008°32'0 0.0
2017-Oct-04 15:27N 37°07' W 008°32'0 0.0
2017-Oct-04 14:03N 37°07' W 008°32'0 0.0
2017-Oct-04 13:48N 37°07' W 008°32'0 0.0
2017-Oct-04 13:30N 37°07' W 008°32'0 0.0
2017-Oct-04 13:00N 37°07' W 008°32'0 0.0
2017-Oct-04 12:27N 37°07' W 008°32'0 0.0
2017-Oct-04 11:09N 37°07' W 008°32'0 0.0
2017-Oct-04 11:00N 37°07' W 008°32'0 0.0
2017-Oct-04 10:30N 37°07' W 008°32'0 0.0
2017-Oct-04 10:00N 37°07' W 008°32'0 0.0
2017-Oct-04 09:24N 37°07' W 008°32'0 0.0
2017-Oct-04 07:21N 37°07' W 008°32'0 0.0
2017-Oct-04 06:54N 37°07' W 008°32'0 0.0
2017-Oct-04 06:24N 37°07' W 008°32'0 0.0
2017-Oct-04 05:54N 37°07' W 008°32'0 0.0
2017-Oct-04 05:18N 37°07' W 008°32'0 0.0
2017-Oct-04 05:00N 37°07' W 008°32'0 0.0
2017-Oct-04 04:21N 37°07' W 008°32'0 0.0
2017-Oct-04 03:51N 37°07' W 008°32'0 0.0
2017-Oct-04 03:21N 37°07' W 008°32'0 0.0
2017-Oct-04 02:54N 37°07' W 008°32'0 0.0
2017-Oct-04 02:15N 37°07' W 008°32'0 0.0
2017-Oct-04 02:00N 37°07' W 008°32'0 0.0
2017-Oct-04 01:27N 37°07' W 008°32'0 0.0
2017-Oct-03 21:48N 37°07' W 008°32'0 0.0
2017-Oct-03 16:43N 37°07' W 008°32'0 0.6
2017-Oct-03 16:20N 37°07' W 008°32'1 3.1
2017-Oct-03 16:00N 37°06' W 008°32'3 5.7
2017-Oct-03 15:30N 37°06' W 008°36'2 4.8
2017-Oct-03 15:00N 37°06' W 008°39'2 1.3
2017-Oct-03 13:42N 37°07' W 008°40'0 0.0
2017-Oct-03 13:24N 37°07' W 008°40'0 0.0
2017-Oct-03 12:48N 37°07' W 008°40'0 0.0
2017-Oct-03 12:27N 37°07' W 008°40'0 0.0
2017-Oct-03 11:45N 37°07' W 008°40'0 0.0
2017-Oct-03 11:27N 37°07' W 008°40'0 0.0
2017-Oct-03 10:57N 37°07' W 008°40'0 0.0
2017-Oct-03 10:30N 37°07' W 008°40'0 0.0
2017-Oct-03 09:51N 37°07' W 008°40'0 0.0
2017-Oct-03 09:21N 37°07' W 008°40'0 0.0
2017-Oct-03 08:57N 37°07' W 008°40'0 0.0
2017-Oct-03 08:30N 37°07' W 008°40'0 0.0
2017-Oct-03 07:45N 37°07' W 008°40'0 0.0
2017-Oct-03 07:27N 37°07' W 008°40'0 0.0
2017-Oct-03 06:03N 37°07' W 008°40'0 0.0
2017-Oct-03 05:42N 37°07' W 008°40'0 0.0
2017-Oct-03 03:36N 37°07' W 008°40'0 0.0
2017-Oct-03 03:12N 37°07' W 008°40'0 0.0
2017-Oct-03 02:57N 37°07' W 008°40'0 0.0
2017-Oct-03 02:18N 37°07' W 008°40'0 0.0
2017-Oct-03 01:51N 37°07' W 008°40'0 0.0
2017-Oct-03 01:27N 37°07' W 008°40'0 0.0
2017-Oct-03 00:51N 37°07' W 008°40'0 0.0
2017-Oct-03 00:21N 37°07' W 008°40'0 0.0
2017-Oct-03 00:00N 37°07' W 008°40'0 0.0
2017-Oct-02 23:27N 37°07' W 008°40'0 0.0
2017-Oct-02 22:48N 37°07' W 008°40'0 0.0
2017-Oct-02 22:00N 37°07' W 008°40'0 0.0
2017-Oct-02 21:21N 37°07' W 008°40'0 0.0
2017-Oct-02 21:00N 37°07' W 008°40'0 0.0
2017-Oct-02 20:24N 37°07' W 008°40'0 0.0
2017-Oct-02 19:57N 37°07' W 008°40'0 0.0
2017-Oct-02 19:27N 37°07' W 008°40'0 0.0
2017-Oct-02 18:51N 37°07' W 008°40'0 0.0
2017-Oct-02 18:27N 37°07' W 008°40'0 0.0
2017-Oct-02 17:21N 37°07' W 008°40'0 0.1
2017-Oct-02 15:21N 37°06' W 008°40'1 3.2
2017-Oct-02 14:59N 37°05' W 008°40'1 2.6
2017-Oct-02 14:30N 37°04' W 008°39'1 2.2
2017-Oct-02 14:00N 37°05' W 008°40'1 2.6
2017-Oct-02 13:28N 37°06' W 008°40'0 0.0
2017-Oct-02 12:58N 37°06' W 008°40'1 2.2
2017-Oct-02 12:30N 37°06' W 008°40'1 1.6
2017-Oct-02 12:00N 37°06' W 008°40'0 0.0
2017-Oct-01 22:19N 37°07' W 008°40'0 0.0
2017-Oct-01 21:52N 37°07' W 008°40'0 0.0
2017-Oct-01 21:19N 37°07' W 008°40'0 0.0
2017-Oct-01 11:31N 37°07' W 008°40'0 0.0
2017-Oct-01 11:07N 37°07' W 008°40'0 0.0
2017-Oct-01 10:55N 37°07' W 008°40'0 0.0
2017-Oct-01 10:25N 37°07' W 008°40'0 0.0
2017-Oct-01 09:55N 37°07' W 008°40'0 0.0
2017-Oct-01 02:49N 37°07' W 008°40'  
Track history (hours):
 
Tides and Currents Weather Stations Pressure Air Temp Water Temp Dewpoint Dewpoint Depression Visibility Wind Speed Wind Dir Waves Ship Positions

Night Sky

Last reported at 2017-Oct-10 15:20 UTC. Time now 2017-Oct-17 17:13 UTC.
Position N 37°06' W 008°40'.

Length 5 m.

Type: Sailing vessel. MMSI: 235016753.

Date/timePositionNaut miles runAvg speedWind from/ knotsBaromVisibWave heightAir tempDewpointWater temp
2017-Oct-10 15:20N 37°06' W 008°40'0 0.0
2017-Oct-10 14:47N 37°06' W 008°40'0 0.0
2017-Oct-10 12:05N 37°06' W 008°40'0 0.0
2017-Oct-10 11:53N 37°06' W 008°40'0 0.0
2017-Oct-10 11:26N 37°06' W 008°40'0 0.0
2017-Oct-09 18:59N 37°07' W 008°40'0 0.0
2017-Oct-09 18:26N 37°07' W 008°40'0 0.0
2017-Oct-09 17:50N 37°07' W 008°40'0 0.0
2017-Oct-09 17:26N 37°07' W 008°40'0 0.0
2017-Oct-09 16:14N 37°07' W 008°40'0 0.0
2017-Oct-09 15:50N 37°07' W 008°40'0 0.0
2017-Oct-09 11:14N 37°06' W 008°40'0 0.0
2017-Oct-09 10:59N 37°06' W 008°40'0 0.0
2017-Oct-09 10:26N 37°06' W 008°40'0 0.0
2017-Oct-09 09:59N 37°06' W 008°40'0 0.0
2017-Oct-09 09:29N 37°06' W 008°40'0 0.2
2017-Oct-09 08:49N 37°07' W 008°40'0 0.0
2017-Oct-09 08:19N 37°07' W 008°40'0 0.0
2017-Oct-09 07:43N 37°07' W 008°40'0 0.0
2017-Oct-09 07:25N 37°07' W 008°40'0 0.0
2017-Oct-09 06:55N 37°07' W 008°40'0 0.0
2017-Oct-09 06:28N 37°07' W 008°40'0 0.0
2017-Oct-09 05:55N 37°07' W 008°40'0 0.0
2017-Oct-09 05:22N 37°07' W 008°40'0 0.0
2017-Oct-09 04:49N 37°07' W 008°40'0 0.0
2017-Oct-09 04:28N 37°07' W 008°40'0 0.0
2017-Oct-09 03:55N 37°07' W 008°40'0 0.0
2017-Oct-09 03:25N 37°07' W 008°40'0 0.0
2017-Oct-09 01:49N 37°07' W 008°40'0 0.0
2017-Oct-09 01:22N 37°07' W 008°40'1 0.1
2017-Oct-08 12:56N 37°06' W 008°39'2 4.6
2017-Oct-08 12:26N 37°07' W 008°37'1 3.4
2017-Oct-08 12:00N 37°05' W 008°36'1 2.8
2017-Oct-08 11:30N 37°04' W 008°34'3 5.3
2017-Oct-08 11:00N 37°06' W 008°32'1 0.2
2017-Oct-08 06:39N 37°07' W 008°32'0 0.0
2017-Oct-08 06:15N 37°07' W 008°32'0 0.0
2017-Oct-07 15:30N 37°07' W 008°32'0 0.4
2017-Oct-07 14:59N 37°07' W 008°32'0 0.8
2017-Oct-07 14:25N 37°07' W 008°31'0 1.1
2017-Oct-07 14:00N 37°06' W 008°32'2 4.5
2017-Oct-07 13:30N 37°06' W 008°35'2 4.8
2017-Oct-07 13:00N 37°06' W 008°38'2 4.2
2017-Oct-07 12:30N 37°06' W 008°40'1 1.0
2017-Oct-07 11:58N 37°07' W 008°40'0 0.0
2017-Oct-07 11:28N 37°07' W 008°40'0 0.0
2017-Oct-07 10:58N 37°07' W 008°40'0 0.0
2017-Oct-07 10:25N 37°07' W 008°40'0 0.0
2017-Oct-07 09:58N 37°07' W 008°40'0 0.0
2017-Oct-07 09:25N 37°07' W 008°40'0 0.0
2017-Oct-07 08:55N 37°07' W 008°40'0 0.0
2017-Oct-07 08:25N 37°07' W 008°40'0 0.0
2017-Oct-07 07:58N 37°07' W 008°40'0 0.0
2017-Oct-07 07:28N 37°07' W 008°40'0 0.0
2017-Oct-07 06:58N 37°07' W 008°40'0 0.0
2017-Oct-07 06:28N 37°07' W 008°40'0 0.0
2017-Oct-07 05:55N 37°07' W 008°40'0 0.0
2017-Oct-07 05:28N 37°07' W 008°40'0 0.0
2017-Oct-07 04:55N 37°07' W 008°40'0 0.0
2017-Oct-07 04:25N 37°07' W 008°40'0 0.0
2017-Oct-07 03:58N 37°07' W 008°40'0 0.0
2017-Oct-07 03:28N 37°07' W 008°40'0 0.0
2017-Oct-07 02:58N 37°07' W 008°40'0 0.0
2017-Oct-07 02:25N 37°07' W 008°40'0 0.0
2017-Oct-07 01:58N 37°07' W 008°40'0 0.0
2017-Oct-07 01:25N 37°07' W 008°40'0 0.0
2017-Oct-07 00:58N 37°07' W 008°40'0 0.0
2017-Oct-07 00:28N 37°07' W 008°40'0 0.0
2017-Oct-06 23:55N 37°07' W 008°40'0 0.0
2017-Oct-06 23:28N 37°07' W 008°40'0 0.0
2017-Oct-06 22:52N 37°07' W 008°40'0 0.0
2017-Oct-06 20:26N 37°07' W 008°40'0 0.0
2017-Oct-06 19:13N 37°07' W 008°40'0 0.0
2017-Oct-06 18:55N 37°07' W 008°40'0 0.0
2017-Oct-06 18:22N 37°07' W 008°40'0 0.0
2017-Oct-06 10:28N 37°07' W 008°40'0 0.0
2017-Oct-06 09:58N 37°07' W 008°40'0 0.0
2017-Oct-06 09:28N 37°07' W 008°40'0 0.0
2017-Oct-06 08:58N 37°07' W 008°40'0 0.0
2017-Oct-06 08:28N 37°07' W 008°40'0 0.0
2017-Oct-06 07:58N 37°07' W 008°40'0 0.0
2017-Oct-06 04:13N 37°07' W 008°40'0 0.0
2017-Oct-06 01:07N 37°07' W 008°40'0 0.0
2017-Oct-06 00:52N 37°07' W 008°40'0 0.0
2017-Oct-06 00:22N 37°07' W 008°40'0 0.0
2017-Oct-05 23:58N 37°07' W 008°40'0 0.0
2017-Oct-05 23:22N 37°07' W 008°40'0 0.0
2017-Oct-05 22:58N 37°07' W 008°40'0 0.0
2017-Oct-05 22:10N 37°07' W 008°40'0 0.0
2017-Oct-05 20:40N 37°07' W 008°40'0 0.0
2017-Oct-05 20:25N 37°07' W 008°40'0 0.0
2017-Oct-05 19:37N 37°07' W 008°40'0 0.0
2017-Oct-05 19:25N 37°07' W 008°40'0 0.0
2017-Oct-05 18:10N 37°07' W 008°40'0 0.0
2017-Oct-05 17:40N 37°07' W 008°40'0 0.0
2017-Oct-05 16:40N 37°07' W 008°40'0 0.0
2017-Oct-05 15:28N 37°07' W 008°40'0 0.2
2017-Oct-05 14:49N 37°06' W 008°40'1 3.2
2017-Oct-05 14:30N 37°06' W 008°39'3 5.3
2017-Oct-05 14:00N 37°06' W 008°36'3 5.4
2017-Oct-05 13:30N 37°06' W 008°33'1 0.4
2017-Oct-05 10:24N 37°07' W 008°31'1 1.3
2017-Oct-05 09:59N 37°07' W 008°32'0 0.1
2017-Oct-05 06:57N 37°07' W 008°32'0 0.0
2017-Oct-05 06:27N 37°07' W 008°32'0 0.0
2017-Oct-05 05:51N 37°07' W 008°32'0 0.0
2017-Oct-05 04:33N 37°07' W 008°32'0 0.0
2017-Oct-05 04:21N 37°07' W 008°32'0 0.0
2017-Oct-05 03:51N 37°07' W 008°32'0 0.0
2017-Oct-05 03:24N 37°07' W 008°32'0 0.0
2017-Oct-05 03:00N 37°07' W 008°32'0 0.0
2017-Oct-05 01:06N 37°07' W 008°32'0 0.0
2017-Oct-04 15:45N 37°07' W 008°32'0 0.0
2017-Oct-04 15:27N 37°07' W 008°32'0 0.0
2017-Oct-04 14:03N 37°07' W 008°32'0 0.0
2017-Oct-04 13:48N 37°07' W 008°32'0 0.0
2017-Oct-04 13:30N 37°07' W 008°32'0 0.0
2017-Oct-04 13:00N 37°07' W 008°32'0 0.0
2017-Oct-04 12:27N 37°07' W 008°32'0 0.0
2017-Oct-04 11:09N 37°07' W 008°32'0 0.0
2017-Oct-04 11:00N 37°07' W 008°32'0 0.0
2017-Oct-04 10:30N 37°07' W 008°32'0 0.0
2017-Oct-04 10:00N 37°07' W 008°32'0 0.0
2017-Oct-04 09:24N 37°07' W 008°32'0 0.0
2017-Oct-04 07:21N 37°07' W 008°32'0 0.0
2017-Oct-04 06:54N 37°07' W 008°32'0 0.0
2017-Oct-04 06:24N 37°07' W 008°32'0 0.0
2017-Oct-04 05:54N 37°07' W 008°32'0 0.0
2017-Oct-04 05:18N 37°07' W 008°32'0 0.0
2017-Oct-04 05:00N 37°07' W 008°32'0 0.0
2017-Oct-04 04:21N 37°07' W 008°32'0 0.0
2017-Oct-04 03:51N 37°07' W 008°32'0 0.0
2017-Oct-04 03:21N 37°07' W 008°32'0 0.0
2017-Oct-04 02:54N 37°07' W 008°32'0 0.0
2017-Oct-04 02:15N 37°07' W 008°32'0 0.0
2017-Oct-04 02:00N 37°07' W 008°32'0 0.0
2017-Oct-04 01:27N 37°07' W 008°32'0 0.0
2017-Oct-03 21:48N 37°07' W 008°32'0 0.0
2017-Oct-03 16:43N 37°07' W 008°32'0 0.6
2017-Oct-03 16:20N 37°07' W 008°32'1 3.1
2017-Oct-03 16:00N 37°06' W 008°32'3 5.7
2017-Oct-03 15:30N 37°06' W 008°36'2 4.8
2017-Oct-03 15:00N 37°06' W 008°39'2 1.3
2017-Oct-03 13:42N 37°07' W 008°40'0 0.0
2017-Oct-03 13:24N 37°07' W 008°40'0 0.0
2017-Oct-03 12:48N 37°07' W 008°40'0 0.0
2017-Oct-03 12:27N 37°07' W 008°40'0 0.0
2017-Oct-03 11:45N 37°07' W 008°40'0 0.0
2017-Oct-03 11:27N 37°07' W 008°40'0 0.0
2017-Oct-03 10:57N 37°07' W 008°40'0 0.0
2017-Oct-03 10:30N 37°07' W 008°40'0 0.0
2017-Oct-03 09:51N 37°07' W 008°40'0 0.0
2017-Oct-03 09:21N 37°07' W 008°40'0 0.0
2017-Oct-03 08:57N 37°07' W 008°40'0 0.0
2017-Oct-03 08:30N 37°07' W 008°40'0 0.0
2017-Oct-03 07:45N 37°07' W 008°40'0 0.0
2017-Oct-03 07:27N 37°07' W 008°40'0 0.0
2017-Oct-03 06:03N 37°07' W 008°40'0 0.0
2017-Oct-03 05:42N 37°07' W 008°40'0 0.0
2017-Oct-03 03:36N 37°07' W 008°40'0 0.0
2017-Oct-03 03:12N 37°07' W 008°40'0 0.0
2017-Oct-03 02:57N 37°07' W 008°40'0 0.0
2017-Oct-03 02:18N 37°07' W 008°40'0 0.0
2017-Oct-03 01:51N 37°07' W 008°40'0 0.0
2017-Oct-03 01:27N 37°07' W 008°40'0 0.0
2017-Oct-03 00:51N 37°07' W 008°40'0 0.0
2017-Oct-03 00:21N 37°07' W 008°40'0 0.0
2017-Oct-03 00:00N 37°07' W 008°40'0 0.0
2017-Oct-02 23:27N 37°07' W 008°40'0 0.0
2017-Oct-02 22:48N 37°07' W 008°40'0 0.0
2017-Oct-02 22:00N 37°07' W 008°40'0 0.0
2017-Oct-02 21:21N 37°07' W 008°40'0 0.0
2017-Oct-02 21:00N 37°07' W 008°40'0 0.0
2017-Oct-02 20:24N 37°07' W 008°40'0 0.0
2017-Oct-02 19:57N 37°07' W 008°40'0 0.0
2017-Oct-02 19:27N 37°07' W 008°40'0 0.0
2017-Oct-02 18:51N 37°07' W 008°40'0 0.0
2017-Oct-02 18:27N 37°07' W 008°40'0 0.0
2017-Oct-02 17:21N 37°07' W 008°40'0 0.1
2017-Oct-02 15:21N 37°06' W 008°40'1 3.2
2017-Oct-02 14:59N 37°05' W 008°40'1 2.6
2017-Oct-02 14:30N 37°04' W 008°39'1 2.2
2017-Oct-02 14:00N 37°05' W 008°40'1 2.6
2017-Oct-02 13:28N 37°06' W 008°40'0 0.0
2017-Oct-02 12:58N 37°06' W 008°40'1 2.2
2017-Oct-02 12:30N 37°06' W 008°40'1 1.6
2017-Oct-02 12:00N 37°06' W 008°40'0 0.0
2017-Oct-01 22:19N 37°07' W 008°40'0 0.0
2017-Oct-01 21:52N 37°07' W 008°40'0 0.0
2017-Oct-01 21:19N 37°07' W 008°40'0 0.0
2017-Oct-01 11:31N 37°07' W 008°40'0 0.0
2017-Oct-01 11:07N 37°07' W 008°40'0 0.0
2017-Oct-01 10:55N 37°07' W 008°40'0 0.0
2017-Oct-01 10:25N 37°07' W 008°40'0 0.0
2017-Oct-01 09:55N 37°07' W 008°40'0 0.0
2017-Oct-01 02:49N 37°07' W 008°40'  

Dump ship's entire track history